sensor_id;sensor_type;location;lat;lon;timestamp;P1;durP1;ratioP1;P2;durP2;ratioP2
5125;SDS011;63008;53.112;8.896;2023-04-03T00:01:58;4.23;;;2.00;;
5125;SDS011;63008;53.112;8.896;2023-04-03T00:03:59;3.13;;;1.80;;
5125;SDS011;63008;53.112;8.896;2023-04-03T00:06:01;5.20;;;2.10;;
5125;SDS011;63008;53.112;8.896;2023-04-03T00:08:02;8.67;;;2.43;;
5125;SDS011;63008;53.112;8.896;2023-04-03T00:10:03;2.60;;;2.40;;
5125;SDS011;63008;53.112;8.896;2023-04-03T00:12:04;5.60;;;2.17;;
5125;SDS011;63008;53.112;8.896;2023-04-03T00:14:05;5.73;;;2.70;;
5125;SDS011;63008;53.112;8.896;2023-04-03T00:16:09;3.00;;;1.93;;
5125;SDS011;63008;53.112;8.896;2023-04-03T00:18:11;5.87;;;2.30;;
5125;SDS011;63008;53.112;8.896;2023-04-03T00:20:12;3.93;;;1.77;;
5125;SDS011;63008;53.112;8.896;2023-04-03T00:22:13;4.33;;;2.20;;
5125;SDS011;63008;53.112;8.896;2023-04-03T00:24:14;3.67;;;2.20;;
5125;SDS011;63008;53.112;8.896;2023-04-03T00:26:15;1.53;;;1.43;;
5125;SDS011;63008;53.112;8.896;2023-04-03T00:28:16;3.97;;;2.10;;
5125;SDS011;63008;53.112;8.896;2023-04-03T00:30:18;2.77;;;1.57;;
5125;SDS011;63008;53.112;8.896;2023-04-03T00:32:20;3.20;;;1.90;;
5125;SDS011;63008;53.112;8.896;2023-04-03T00:34:21;4.80;;;1.97;;
5125;SDS011;63008;53.112;8.896;2023-04-03T00:36:22;3.43;;;1.60;;
5125;SDS011;63008;53.112;8.896;2023-04-03T00:38:23;3.53;;;2.00;;
5125;SDS011;63008;53.112;8.896;2023-04-03T00:40:25;5.90;;;1.90;;
5125;SDS011;63008;53.112;8.896;2023-04-03T00:42:27;6.27;;;2.30;;
5125;SDS011;63008;53.112;8.896;2023-04-03T00:46:29;5.47;;;2.10;;
5125;SDS011;63008;53.112;8.896;2023-04-03T00:48:40;3.93;;;1.90;;
5125;SDS011;63008;53.112;8.896;2023-04-03T00:50:43;7.40;;;2.43;;
5125;SDS011;63008;53.112;8.896;2023-04-03T00:52:45;10.47;;;2.60;;
5125;SDS011;63008;53.112;8.896;2023-04-03T00:54:50;3.07;;;2.07;;
5125;SDS011;63008;53.112;8.896;2023-04-03T00:56:55;8.40;;;3.00;;
5125;SDS011;63008;53.112;8.896;2023-04-03T00:59:01;4.93;;;2.30;;
5125;SDS011;63008;53.112;8.896;2023-04-03T01:01:07;6.00;;;2.20;;
5125;SDS011;63008;53.112;8.896;2023-04-03T01:03:13;8.80;;;3.20;;
5125;SDS011;63008;53.112;8.896;2023-04-03T01:05:14;5.03;;;2.50;;
5125;SDS011;63008;53.112;8.896;2023-04-03T01:07:24;7.97;;;2.37;;
5125;SDS011;63008;53.112;8.896;2023-04-03T01:09:28;4.50;;;2.30;;
5125;SDS011;63008;53.112;8.896;2023-04-03T01:11:29;6.50;;;2.43;;
5125;SDS011;63008;53.112;8.896;2023-04-03T01:13:32;4.43;;;2.50;;
5125;SDS011;63008;53.112;8.896;2023-04-03T01:15:33;4.80;;;2.47;;
5125;SDS011;63008;53.112;8.896;2023-04-03T01:17:46;7.33;;;2.80;;
5125;SDS011;63008;53.112;8.896;2023-04-03T01:19:49;4.63;;;2.23;;
5125;SDS011;63008;53.112;8.896;2023-04-03T01:22:15;3.37;;;1.93;;
5125;SDS011;63008;53.112;8.896;2023-04-03T01:24:36;5.47;;;2.47;;
5125;SDS011;63008;53.112;8.896;2023-04-03T01:26:39;7.67;;;2.57;;
5125;SDS011;63008;53.112;8.896;2023-04-03T01:28:40;7.60;;;2.67;;
5125;SDS011;63008;53.112;8.896;2023-04-03T01:30:44;5.63;;;1.93;;
5125;SDS011;63008;53.112;8.896;2023-04-03T01:33:04;6.67;;;2.47;;
5125;SDS011;63008;53.112;8.896;2023-04-03T01:35:07;3.57;;;2.23;;
5125;SDS011;63008;53.112;8.896;2023-04-03T01:37:09;7.67;;;2.70;;
5125;SDS011;63008;53.112;8.896;2023-04-03T01:39:10;4.20;;;2.57;;
5125;SDS011;63008;53.112;8.896;2023-04-03T01:41:12;11.70;;;2.67;;
5125;SDS011;63008;53.112;8.896;2023-04-03T01:43:13;2.70;;;2.20;;
5125;SDS011;63008;53.112;8.896;2023-04-03T01:45:14;5.40;;;2.30;;
5125;SDS011;63008;53.112;8.896;2023-04-03T01:47:15;8.83;;;2.83;;
5125;SDS011;63008;53.112;8.896;2023-04-03T01:49:16;3.93;;;2.27;;
5125;SDS011;63008;53.112;8.896;2023-04-03T01:51:17;3.07;;;2.10;;
5125;SDS011;63008;53.112;8.896;2023-04-03T01:53:18;4.93;;;2.00;;
5125;SDS011;63008;53.112;8.896;2023-04-03T01:55:19;6.03;;;2.37;;
5125;SDS011;63008;53.112;8.896;2023-04-03T01:57:20;5.77;;;2.40;;
5125;SDS011;63008;53.112;8.896;2023-04-03T01:59:21;5.37;;;2.30;;
5125;SDS011;63008;53.112;8.896;2023-04-03T02:01:22;6.90;;;2.80;;
5125;SDS011;63008;53.112;8.896;2023-04-03T02:03:23;5.43;;;2.67;;
5125;SDS011;63008;53.112;8.896;2023-04-03T02:05:24;3.43;;;2.37;;
5125;SDS011;63008;53.112;8.896;2023-04-03T02:07:25;4.40;;;2.30;;
5125;SDS011;63008;53.112;8.896;2023-04-03T02:09:26;5.70;;;2.70;;
5125;SDS011;63008;53.112;8.896;2023-04-03T02:11:27;5.80;;;2.67;;
5125;SDS011;63008;53.112;8.896;2023-04-03T02:13:28;4.53;;;2.47;;
5125;SDS011;63008;53.112;8.896;2023-04-03T02:15:29;7.10;;;2.03;;
5125;SDS011;63008;53.112;8.896;2023-04-03T02:17:30;6.77;;;2.27;;
5125;SDS011;63008;53.112;8.896;2023-04-03T02:19:31;7.47;;;2.67;;
5125;SDS011;63008;53.112;8.896;2023-04-03T02:21:32;4.70;;;2.53;;
5125;SDS011;63008;53.112;8.896;2023-04-03T02:23:33;8.50;;;2.17;;
5125;SDS011;63008;53.112;8.896;2023-04-03T02:25:37;4.90;;;2.00;;
5125;SDS011;63008;53.112;8.896;2023-04-03T02:27:38;8.60;;;2.27;;
5125;SDS011;63008;53.112;8.896;2023-04-03T02:29:39;5.13;;;2.33;;
5125;SDS011;63008;53.112;8.896;2023-04-03T02:31:41;7.50;;;3.10;;
5125;SDS011;63008;53.112;8.896;2023-04-03T02:35:45;6.90;;;2.20;;
5125;SDS011;63008;53.112;8.896;2023-04-03T02:37:53;5.60;;;2.93;;
5125;SDS011;63008;53.112;8.896;2023-04-03T02:39:54;4.00;;;2.13;;
5125;SDS011;63008;53.112;8.896;2023-04-03T02:41:55;9.40;;;3.20;;
5125;SDS011;63008;53.112;8.896;2023-04-03T02:43:56;4.50;;;2.20;;
5125;SDS011;63008;53.112;8.896;2023-04-03T02:45:57;8.43;;;2.20;;
5125;SDS011;63008;53.112;8.896;2023-04-03T02:47:58;3.77;;;2.20;;
5125;SDS011;63008;53.112;8.896;2023-04-03T02:49:59;11.23;;;2.77;;
5125;SDS011;63008;53.112;8.896;2023-04-03T02:52:00;5.03;;;2.30;;
5125;SDS011;63008;53.112;8.896;2023-04-03T02:54:01;5.33;;;2.17;;
5125;SDS011;63008;53.112;8.896;2023-04-03T02:56:02;4.10;;;2.47;;
5125;SDS011;63008;53.112;8.896;2023-04-03T02:58:03;8.30;;;2.50;;
5125;SDS011;63008;53.112;8.896;2023-04-03T03:00:04;5.47;;;2.27;;
5125;SDS011;63008;53.112;8.896;2023-04-03T03:02:06;3.80;;;2.03;;
5125;SDS011;63008;53.112;8.896;2023-04-03T03:04:08;5.17;;;2.40;;
5125;SDS011;63008;53.112;8.896;2023-04-03T03:06:10;4.83;;;2.37;;
5125;SDS011;63008;53.112;8.896;2023-04-03T03:08:13;7.53;;;2.30;;
5125;SDS011;63008;53.112;8.896;2023-04-03T03:10:14;11.63;;;2.47;;
5125;SDS011;63008;53.112;8.896;2023-04-03T03:12:15;4.70;;;2.20;;
5125;SDS011;63008;53.112;8.896;2023-04-03T03:14:16;7.90;;;2.70;;
5125;SDS011;63008;53.112;8.896;2023-04-03T03:16:17;6.63;;;2.53;;
5125;SDS011;63008;53.112;8.896;2023-04-03T03:18:18;3.50;;;2.10;;
5125;SDS011;63008;53.112;8.896;2023-04-03T03:20:19;8.93;;;2.10;;
5125;SDS011;63008;53.112;8.896;2023-04-03T03:22:20;3.77;;;2.10;;
5125;SDS011;63008;53.112;8.896;2023-04-03T03:24:21;4.87;;;2.93;;
5125;SDS011;63008;53.112;8.896;2023-04-03T03:26:22;4.57;;;2.40;;
5125;SDS011;63008;53.112;8.896;2023-04-03T03:28:23;7.43;;;2.63;;
5125;SDS011;63008;53.112;8.896;2023-04-03T03:30:24;7.83;;;2.60;;
5125;SDS011;63008;53.112;8.896;2023-04-03T03:32:25;5.10;;;2.03;;
5125;SDS011;63008;53.112;8.896;2023-04-03T03:34:26;6.40;;;2.43;;
5125;SDS011;63008;53.112;8.896;2023-04-03T03:36:27;7.70;;;2.30;;
5125;SDS011;63008;53.112;8.896;2023-04-03T03:38:28;4.80;;;2.90;;
5125;SDS011;63008;53.112;8.896;2023-04-03T03:40:29;2.80;;;1.90;;
5125;SDS011;63008;53.112;8.896;2023-04-03T03:42:30;9.10;;;2.50;;
5125;SDS011;63008;53.112;8.896;2023-04-03T03:44:31;9.27;;;2.60;;
5125;SDS011;63008;53.112;8.896;2023-04-03T03:46:32;7.03;;;2.80;;
5125;SDS011;63008;53.112;8.896;2023-04-03T03:48:33;4.57;;;2.47;;
5125;SDS011;63008;53.112;8.896;2023-04-03T03:50:34;8.27;;;2.20;;
5125;SDS011;63008;53.112;8.896;2023-04-03T03:52:35;3.50;;;2.03;;
5125;SDS011;63008;53.112;8.896;2023-04-03T03:54:36;4.20;;;2.50;;
5125;SDS011;63008;53.112;8.896;2023-04-03T03:56:38;7.77;;;2.90;;
5125;SDS011;63008;53.112;8.896;2023-04-03T03:58:39;10.20;;;2.37;;
5125;SDS011;63008;53.112;8.896;2023-04-03T04:00:40;5.73;;;2.00;;
5125;SDS011;63008;53.112;8.896;2023-04-03T04:02:42;8.10;;;2.33;;
5125;SDS011;63008;53.112;8.896;2023-04-03T04:04:43;5.67;;;2.20;;
5125;SDS011;63008;53.112;8.896;2023-04-03T04:06:44;8.83;;;2.60;;
5125;SDS011;63008;53.112;8.896;2023-04-03T04:08:45;7.90;;;2.67;;
5125;SDS011;63008;53.112;8.896;2023-04-03T04:10:46;5.83;;;3.33;;
5125;SDS011;63008;53.112;8.896;2023-04-03T04:12:47;7.20;;;2.47;;
5125;SDS011;63008;53.112;8.896;2023-04-03T04:14:49;10.73;;;3.10;;
5125;SDS011;63008;53.112;8.896;2023-04-03T04:16:50;6.97;;;3.00;;
5125;SDS011;63008;53.112;8.896;2023-04-03T04:18:51;9.03;;;3.53;;
5125;SDS011;63008;53.112;8.896;2023-04-03T04:20:52;6.23;;;3.90;;
5125;SDS011;63008;53.112;8.896;2023-04-03T04:22:56;8.90;;;3.10;;
5125;SDS011;63008;53.112;8.896;2023-04-03T04:24:57;8.33;;;3.67;;
5125;SDS011;63008;53.112;8.896;2023-04-03T04:26:58;10.50;;;3.53;;
5125;SDS011;63008;53.112;8.896;2023-04-03T04:28:59;7.77;;;2.90;;
5125;SDS011;63008;53.112;8.896;2023-04-03T04:31:00;7.53;;;3.20;;
5125;SDS011;63008;53.112;8.896;2023-04-03T04:33:01;7.00;;;3.13;;
5125;SDS011;63008;53.112;8.896;2023-04-03T04:35:03;10.23;;;2.93;;
5125;SDS011;63008;53.112;8.896;2023-04-03T04:37:04;7.40;;;3.10;;
5125;SDS011;63008;53.112;8.896;2023-04-03T04:39:05;7.80;;;3.03;;
5125;SDS011;63008;53.112;8.896;2023-04-03T04:41:06;4.67;;;2.43;;
5125;SDS011;63008;53.112;8.896;2023-04-03T04:43:08;5.10;;;2.63;;
5125;SDS011;63008;53.112;8.896;2023-04-03T04:45:09;5.17;;;2.70;;
5125;SDS011;63008;53.112;8.896;2023-04-03T04:47:10;7.17;;;2.80;;
5125;SDS011;63008;53.112;8.896;2023-04-03T04:49:11;5.87;;;2.40;;
5125;SDS011;63008;53.112;8.896;2023-04-03T04:51:12;8.43;;;3.43;;
5125;SDS011;63008;53.112;8.896;2023-04-03T04:53:13;5.67;;;2.90;;
5125;SDS011;63008;53.112;8.896;2023-04-03T04:55:14;5.77;;;2.67;;
5125;SDS011;63008;53.112;8.896;2023-04-03T04:57:15;12.80;;;3.17;;
5125;SDS011;63008;53.112;8.896;2023-04-03T04:59:16;5.80;;;2.63;;
5125;SDS011;63008;53.112;8.896;2023-04-03T05:01:17;19.33;;;2.90;;
5125;SDS011;63008;53.112;8.896;2023-04-03T05:03:19;6.50;;;2.73;;
5125;SDS011;63008;53.112;8.896;2023-04-03T05:05:20;5.00;;;2.80;;
5125;SDS011;63008;53.112;8.896;2023-04-03T05:07:21;7.57;;;2.90;;
5125;SDS011;63008;53.112;8.896;2023-04-03T05:09:22;7.10;;;3.60;;
5125;SDS011;63008;53.112;8.896;2023-04-03T05:11:23;7.97;;;2.90;;
5125;SDS011;63008;53.112;8.896;2023-04-03T05:13:24;6.60;;;2.97;;
5125;SDS011;63008;53.112;8.896;2023-04-03T05:15:25;5.27;;;2.80;;
5125;SDS011;63008;53.112;8.896;2023-04-03T05:17:26;9.33;;;3.37;;
5125;SDS011;63008;53.112;8.896;2023-04-03T05:19:27;5.67;;;3.13;;
5125;SDS011;63008;53.112;8.896;2023-04-03T05:21:28;5.90;;;3.30;;
5125;SDS011;63008;53.112;8.896;2023-04-03T05:23:33;7.17;;;2.80;;
5125;SDS011;63008;53.112;8.896;2023-04-03T05:25:34;12.40;;;3.10;;
5125;SDS011;63008;53.112;8.896;2023-04-03T05:27:35;7.90;;;2.97;;
5125;SDS011;63008;53.112;8.896;2023-04-03T05:29:36;5.57;;;2.97;;
5125;SDS011;63008;53.112;8.896;2023-04-03T05:31:37;10.73;;;3.60;;
5125;SDS011;63008;53.112;8.896;2023-04-03T05:33:37;6.43;;;2.70;;
5125;SDS011;63008;53.112;8.896;2023-04-03T05:35:38;5.07;;;3.00;;
5125;SDS011;63008;53.112;8.896;2023-04-03T05:37:41;5.70;;;3.07;;
5125;SDS011;63008;53.112;8.896;2023-04-03T05:39:42;7.60;;;4.83;;
5125;SDS011;63008;53.112;8.896;2023-04-03T05:41:43;12.60;;;3.43;;
5125;SDS011;63008;53.112;8.896;2023-04-03T05:43:44;7.83;;;3.63;;
5125;SDS011;63008;53.112;8.896;2023-04-03T05:45:46;9.40;;;4.80;;
5125;SDS011;63008;53.112;8.896;2023-04-03T05:47:48;9.60;;;4.03;;
5125;SDS011;63008;53.112;8.896;2023-04-03T05:49:49;9.17;;;5.00;;
5125;SDS011;63008;53.112;8.896;2023-04-03T05:51:50;8.57;;;3.40;;
5125;SDS011;63008;53.112;8.896;2023-04-03T05:53:52;8.70;;;3.23;;
5125;SDS011;63008;53.112;8.896;2023-04-03T05:56:00;3.80;;;2.87;;
5125;SDS011;63008;53.112;8.896;2023-04-03T05:58:01;4.80;;;3.30;;
5125;SDS011;63008;53.112;8.896;2023-04-03T06:00:03;6.83;;;3.53;;
5125;SDS011;63008;53.112;8.896;2023-04-03T06:02:06;7.70;;;3.63;;
5125;SDS011;63008;53.112;8.896;2023-04-03T06:04:07;5.43;;;3.53;;
5125;SDS011;63008;53.112;8.896;2023-04-03T06:06:12;10.43;;;3.93;;
5125;SDS011;63008;53.112;8.896;2023-04-03T06:08:14;9.77;;;4.00;;
5125;SDS011;63008;53.112;8.896;2023-04-03T06:10:15;6.47;;;3.10;;
5125;SDS011;63008;53.112;8.896;2023-04-03T06:12:17;7.63;;;2.70;;
5125;SDS011;63008;53.112;8.896;2023-04-03T06:14:19;9.70;;;3.47;;
5125;SDS011;63008;53.112;8.896;2023-04-03T06:16:20;6.70;;;3.43;;
5125;SDS011;63008;53.112;8.896;2023-04-03T06:18:21;8.80;;;3.80;;
5125;SDS011;63008;53.112;8.896;2023-04-03T06:20:22;8.67;;;3.50;;
5125;SDS011;63008;53.112;8.896;2023-04-03T06:22:23;6.60;;;2.80;;
5125;SDS011;63008;53.112;8.896;2023-04-03T06:24:26;6.13;;;3.00;;
5125;SDS011;63008;53.112;8.896;2023-04-03T06:26:27;9.80;;;2.90;;
5125;SDS011;63008;53.112;8.896;2023-04-03T06:28:29;6.47;;;2.93;;
5125;SDS011;63008;53.112;8.896;2023-04-03T06:30:30;12.30;;;3.10;;
5125;SDS011;63008;53.112;8.896;2023-04-03T06:32:31;22.77;;;3.30;;
5125;SDS011;63008;53.112;8.896;2023-04-03T06:34:32;8.57;;;3.07;;
5125;SDS011;63008;53.112;8.896;2023-04-03T06:36:33;6.40;;;3.30;;
5125;SDS011;63008;53.112;8.896;2023-04-03T06:38:34;7.57;;;3.03;;
5125;SDS011;63008;53.112;8.896;2023-04-03T06:40:35;8.07;;;2.90;;
5125;SDS011;63008;53.112;8.896;2023-04-03T06:42:36;12.00;;;3.13;;
5125;SDS011;63008;53.112;8.896;2023-04-03T06:44:37;4.63;;;2.60;;
5125;SDS011;63008;53.112;8.896;2023-04-03T06:46:39;7.93;;;2.83;;
5125;SDS011;63008;53.112;8.896;2023-04-03T06:48:40;3.33;;;2.60;;
5125;SDS011;63008;53.112;8.896;2023-04-03T06:50:41;9.00;;;3.70;;
5125;SDS011;63008;53.112;8.896;2023-04-03T06:52:42;4.43;;;2.87;;
5125;SDS011;63008;53.112;8.896;2023-04-03T06:54:43;3.80;;;2.30;;
5125;SDS011;63008;53.112;8.896;2023-04-03T06:56:44;6.60;;;2.67;;
5125;SDS011;63008;53.112;8.896;2023-04-03T06:58:45;3.73;;;2.97;;
5125;SDS011;63008;53.112;8.896;2023-04-03T07:00:46;6.20;;;2.83;;
5125;SDS011;63008;53.112;8.896;2023-04-03T07:02:47;5.20;;;2.80;;
5125;SDS011;63008;53.112;8.896;2023-04-03T07:04:48;8.97;;;2.50;;
5125;SDS011;63008;53.112;8.896;2023-04-03T07:06:49;7.73;;;3.17;;
5125;SDS011;63008;53.112;8.896;2023-04-03T07:08:51;7.87;;;2.23;;
5125;SDS011;63008;53.112;8.896;2023-04-03T07:10:52;6.03;;;1.90;;
5125;SDS011;63008;53.112;8.896;2023-04-03T07:12:53;5.27;;;3.13;;
5125;SDS011;63008;53.112;8.896;2023-04-03T07:14:54;5.87;;;2.10;;
5125;SDS011;63008;53.112;8.896;2023-04-03T07:16:55;7.23;;;2.20;;
5125;SDS011;63008;53.112;8.896;2023-04-03T07:18:56;4.27;;;2.33;;
5125;SDS011;63008;53.112;8.896;2023-04-03T07:20:57;4.47;;;2.13;;
5125;SDS011;63008;53.112;8.896;2023-04-03T07:22:58;6.37;;;2.27;;
5125;SDS011;63008;53.112;8.896;2023-04-03T07:25:00;5.20;;;2.60;;
5125;SDS011;63008;53.112;8.896;2023-04-03T07:27:01;9.13;;;2.07;;
5125;SDS011;63008;53.112;8.896;2023-04-03T07:29:03;5.20;;;2.17;;
5125;SDS011;63008;53.112;8.896;2023-04-03T07:31:05;3.53;;;2.10;;
5125;SDS011;63008;53.112;8.896;2023-04-03T07:33:08;4.47;;;2.53;;
5125;SDS011;63008;53.112;8.896;2023-04-03T07:35:09;5.60;;;1.97;;
5125;SDS011;63008;53.112;8.896;2023-04-03T07:37:11;4.50;;;1.73;;
5125;SDS011;63008;53.112;8.896;2023-04-03T07:39:12;5.07;;;2.30;;
5125;SDS011;63008;53.112;8.896;2023-04-03T07:41:16;3.07;;;1.80;;
5125;SDS011;63008;53.112;8.896;2023-04-03T07:43:19;5.70;;;1.90;;
5125;SDS011;63008;53.112;8.896;2023-04-03T07:45:21;5.37;;;1.70;;
5125;SDS011;63008;53.112;8.896;2023-04-03T07:47:23;3.23;;;1.67;;
5125;SDS011;63008;53.112;8.896;2023-04-03T07:49:26;3.90;;;1.60;;
5125;SDS011;63008;53.112;8.896;2023-04-03T07:51:27;4.83;;;1.50;;
5125;SDS011;63008;53.112;8.896;2023-04-03T07:53:30;3.13;;;1.77;;
5125;SDS011;63008;53.112;8.896;2023-04-03T07:55:32;5.00;;;1.77;;
5125;SDS011;63008;53.112;8.896;2023-04-03T07:57:33;4.13;;;1.93;;
5125;SDS011;63008;53.112;8.896;2023-04-03T07:59:34;6.30;;;1.40;;
5125;SDS011;63008;53.112;8.896;2023-04-03T08:01:35;3.50;;;1.37;;
5125;SDS011;63008;53.112;8.896;2023-04-03T08:03:36;3.90;;;1.33;;
5125;SDS011;63008;53.112;8.896;2023-04-03T08:05:41;2.37;;;1.30;;
5125;SDS011;63008;53.112;8.896;2023-04-03T08:07:43;3.47;;;1.37;;
5125;SDS011;63008;53.112;8.896;2023-04-03T08:09:44;8.00;;;1.30;;
5125;SDS011;63008;53.112;8.896;2023-04-03T08:11:45;2.53;;;1.50;;
5125;SDS011;63008;53.112;8.896;2023-04-03T08:13:46;6.47;;;1.47;;
5125;SDS011;63008;53.112;8.896;2023-04-03T08:15:47;3.87;;;1.67;;
5125;SDS011;63008;53.112;8.896;2023-04-03T08:17:48;5.60;;;1.40;;
5125;SDS011;63008;53.112;8.896;2023-04-03T08:19:49;1.87;;;1.23;;
5125;SDS011;63008;53.112;8.896;2023-04-03T08:21:50;2.67;;;1.30;;
5125;SDS011;63008;53.112;8.896;2023-04-03T08:23:51;5.20;;;1.10;;
5125;SDS011;63008;53.112;8.896;2023-04-03T08:25:55;2.43;;;1.30;;
5125;SDS011;63008;53.112;8.896;2023-04-03T08:27:56;2.80;;;1.03;;
5125;SDS011;63008;53.112;8.896;2023-04-03T08:29:58;2.70;;;0.90;;
5125;SDS011;63008;53.112;8.896;2023-04-03T08:31:59;5.23;;;1.40;;
5125;SDS011;63008;53.112;8.896;2023-04-03T08:34:00;1.23;;;0.80;;
5125;SDS011;63008;53.112;8.896;2023-04-03T08:36:01;0.87;;;0.70;;
5125;SDS011;63008;53.112;8.896;2023-04-03T08:38:04;1.50;;;0.80;;
5125;SDS011;63008;53.112;8.896;2023-04-03T08:40:05;4.13;;;0.93;;
5125;SDS011;63008;53.112;8.896;2023-04-03T08:43:16;2.17;;;1.00;;
5125;SDS011;63008;53.112;8.896;2023-04-03T08:44:52;3.70;;;1.13;;
5125;SDS011;63008;53.112;8.896;2023-04-03T08:49:45;2.70;;;0.70;;
5125;SDS011;63008;53.112;8.896;2023-04-03T08:51:49;1.63;;;0.83;;
5125;SDS011;63008;53.112;8.896;2023-04-03T08:53:56;1.93;;;0.80;;
5125;SDS011;63008;53.112;8.896;2023-04-03T08:56:07;3.10;;;1.00;;
5125;SDS011;63008;53.112;8.896;2023-04-03T08:58:12;1.93;;;0.83;;
5125;SDS011;63008;53.112;8.896;2023-04-03T09:00:18;0.83;;;0.80;;
5125;SDS011;63008;53.112;8.896;2023-04-03T09:04:35;3.47;;;1.10;;
5125;SDS011;63008;53.112;8.896;2023-04-03T09:06:36;2.53;;;0.83;;
5125;SDS011;63008;53.112;8.896;2023-04-03T09:11:14;1.40;;;0.50;;
5125;SDS011;63008;53.112;8.896;2023-04-03T09:13:24;1.20;;;0.93;;
5125;SDS011;63008;53.112;8.896;2023-04-03T09:15:45;1.50;;;0.70;;
5125;SDS011;63008;53.112;8.896;2023-04-03T09:22:15;2.13;;;0.90;;
5125;SDS011;63008;53.112;8.896;2023-04-03T09:24:19;2.70;;;1.03;;
5125;SDS011;63008;53.112;8.896;2023-04-03T09:26:24;2.00;;;1.07;;
5125;SDS011;63008;53.112;8.896;2023-04-03T09:28:32;2.43;;;0.97;;
5125;SDS011;63008;53.112;8.896;2023-04-03T09:30:37;2.33;;;0.70;;
5125;SDS011;63008;53.112;8.896;2023-04-03T09:32:38;1.37;;;0.80;;
5125;SDS011;63008;53.112;8.896;2023-04-03T09:34:39;1.00;;;0.73;;
5125;SDS011;63008;53.112;8.896;2023-04-03T09:39:02;2.90;;;0.90;;
5125;SDS011;63008;53.112;8.896;2023-04-03T09:41:09;1.20;;;0.80;;
5125;SDS011;63008;53.112;8.896;2023-04-03T09:45:28;0.77;;;0.57;;
5125;SDS011;63008;53.112;8.896;2023-04-03T09:47:33;3.20;;;1.10;;
5125;SDS011;63008;53.112;8.896;2023-04-03T09:49:35;1.67;;;0.90;;
5125;SDS011;63008;53.112;8.896;2023-04-03T09:51:36;1.37;;;0.97;;
5125;SDS011;63008;53.112;8.896;2023-04-03T09:53:38;1.53;;;0.70;;
5125;SDS011;63008;53.112;8.896;2023-04-03T09:55:42;2.00;;;0.90;;
5125;SDS011;63008;53.112;8.896;2023-04-03T09:57:46;0.97;;;0.80;;
5125;SDS011;63008;53.112;8.896;2023-04-03T09:59:56;2.00;;;0.90;;
5125;SDS011;63008;53.112;8.896;2023-04-03T10:02:00;4.27;;;0.97;;
5125;SDS011;63008;53.112;8.896;2023-04-03T10:04:06;2.63;;;0.80;;
5125;SDS011;63008;53.112;8.896;2023-04-03T10:06:21;2.40;;;1.00;;
5125;SDS011;63008;53.112;8.896;2023-04-03T10:08:26;1.43;;;0.90;;
5125;SDS011;63008;53.112;8.896;2023-04-03T10:10:35;1.57;;;1.03;;
5125;SDS011;63008;53.112;8.896;2023-04-03T10:12:36;1.47;;;0.80;;
5125;SDS011;63008;53.112;8.896;2023-04-03T10:14:38;1.67;;;1.17;;
5125;SDS011;63008;53.112;8.896;2023-04-03T10:16:46;0.70;;;0.70;;
5125;SDS011;63008;53.112;8.896;2023-04-03T10:18:56;1.60;;;0.73;;
5125;SDS011;63008;53.112;8.896;2023-04-03T10:21:05;2.50;;;0.80;;
5125;SDS011;63008;53.112;8.896;2023-04-03T10:23:24;1.57;;;0.90;;
5125;SDS011;63008;53.112;8.896;2023-04-03T10:25:35;2.50;;;0.90;;
5125;SDS011;63008;53.112;8.896;2023-04-03T10:27:47;0.80;;;0.80;;
5125;SDS011;63008;53.112;8.896;2023-04-03T10:34:33;1.60;;;0.90;;
5125;SDS011;63008;53.112;8.896;2023-04-03T10:39:13;1.97;;;1.20;;
5125;SDS011;63008;53.112;8.896;2023-04-03T10:41:51;2.43;;;0.80;;
5125;SDS011;63008;53.112;8.896;2023-04-03T10:46:32;1.20;;;1.10;;
5125;SDS011;63008;53.112;8.896;2023-04-03T10:48:44;1.30;;;1.10;;
5125;SDS011;63008;53.112;8.896;2023-04-03T10:53:24;0.70;;;0.70;;
5125;SDS011;63008;53.112;8.896;2023-04-03T10:58:25;1.53;;;0.80;;
5125;SDS011;63008;53.112;8.896;2023-04-03T11:00:40;1.63;;;0.63;;
5125;SDS011;63008;53.112;8.896;2023-04-03T11:02:51;1.60;;;1.00;;
5125;SDS011;63008;53.112;8.896;2023-04-03T11:05:05;1.20;;;0.70;;
5125;SDS011;63008;53.112;8.896;2023-04-03T11:07:16;0.90;;;0.80;;
5125;SDS011;63008;53.112;8.896;2023-04-03T11:09:26;1.70;;;0.70;;
5125;SDS011;63008;53.112;8.896;2023-04-03T11:11:30;1.57;;;0.70;;
5125;SDS011;63008;53.112;8.896;2023-04-03T11:13:35;1.40;;;0.90;;
5125;SDS011;63008;53.112;8.896;2023-04-03T11:15:43;2.03;;;0.70;;
5125;SDS011;63008;53.112;8.896;2023-04-03T11:20:14;1.40;;;0.80;;
5125;SDS011;63008;53.112;8.896;2023-04-03T11:22:22;4.97;;;0.70;;
5125;SDS011;63008;53.112;8.896;2023-04-03T11:24:27;2.70;;;0.83;;
5125;SDS011;63008;53.112;8.896;2023-04-03T11:26:35;3.90;;;1.13;;
5125;SDS011;63008;53.112;8.896;2023-04-03T11:28:39;1.90;;;0.97;;
5125;SDS011;63008;53.112;8.896;2023-04-03T11:30:46;2.13;;;1.00;;
5125;SDS011;63008;53.112;8.896;2023-04-03T11:33:05;1.53;;;0.93;;
5125;SDS011;63008;53.112;8.896;2023-04-03T11:35:11;1.67;;;0.90;;
5125;SDS011;63008;53.112;8.896;2023-04-03T11:37:15;2.13;;;1.30;;
5125;SDS011;63008;53.112;8.896;2023-04-03T11:39:26;1.40;;;0.70;;
5125;SDS011;63008;53.112;8.896;2023-04-03T11:41:39;1.47;;;0.90;;
5125;SDS011;63008;53.112;8.896;2023-04-03T11:43:40;1.80;;;1.17;;
5125;SDS011;63008;53.112;8.896;2023-04-03T11:48:01;1.77;;;1.10;;
5125;SDS011;63008;53.112;8.896;2023-04-03T11:50:07;4.70;;;1.00;;
5125;SDS011;63008;53.112;8.896;2023-04-03T11:54:44;1.37;;;0.87;;
5125;SDS011;63008;53.112;8.896;2023-04-03T11:56:46;5.93;;;1.40;;
5125;SDS011;63008;53.112;8.896;2023-04-03T12:02:01;1.93;;;1.13;;
5125;SDS011;63008;53.112;8.896;2023-04-03T12:05:45;1.17;;;0.80;;
5125;SDS011;63008;53.112;8.896;2023-04-03T12:08:14;1.17;;;1.00;;
5125;SDS011;63008;53.112;8.896;2023-04-03T12:10:24;2.63;;;1.20;;
5125;SDS011;63008;53.112;8.896;2023-04-03T12:12:30;2.73;;;1.10;;
5125;SDS011;63008;53.112;8.896;2023-04-03T12:14:34;4.27;;;1.27;;
5125;SDS011;63008;53.112;8.896;2023-04-03T12:16:46;2.03;;;1.23;;
5125;SDS011;63008;53.112;8.896;2023-04-03T12:18:55;1.37;;;1.27;;
5125;SDS011;63008;53.112;8.896;2023-04-03T12:20:58;1.17;;;0.90;;
5125;SDS011;63008;53.112;8.896;2023-04-03T12:23:22;4.40;;;0.90;;
5125;SDS011;63008;53.112;8.896;2023-04-03T12:25:48;2.87;;;1.00;;
5125;SDS011;63008;53.112;8.896;2023-04-03T12:27:50;1.00;;;1.00;;
5125;SDS011;63008;53.112;8.896;2023-04-03T12:32:30;1.60;;;1.13;;
5125;SDS011;63008;53.112;8.896;2023-04-03T12:34:53;3.17;;;1.30;;
5125;SDS011;63008;53.112;8.896;2023-04-03T12:37:09;2.50;;;1.27;;
5125;SDS011;63008;53.112;8.896;2023-04-03T12:39:42;2.53;;;1.00;;
5125;SDS011;63008;53.112;8.896;2023-04-03T12:42:11;1.20;;;1.03;;
5125;SDS011;63008;53.112;8.896;2023-04-03T12:44:55;4.63;;;1.40;;
5125;SDS011;63008;53.112;8.896;2023-04-03T12:47:34;4.83;;;1.27;;
5125;SDS011;63008;53.112;8.896;2023-04-03T12:49:38;2.70;;;1.50;;
5125;SDS011;63008;53.112;8.896;2023-04-03T12:51:42;1.80;;;1.23;;
5125;SDS011;63008;53.112;8.896;2023-04-03T12:53:46;1.90;;;1.20;;
5125;SDS011;63008;53.112;8.896;2023-04-03T12:55:53;1.23;;;1.13;;
5125;SDS011;63008;53.112;8.896;2023-04-03T12:57:55;3.80;;;1.17;;
5125;SDS011;63008;53.112;8.896;2023-04-03T12:59:56;3.87;;;1.27;;
5125;SDS011;63008;53.112;8.896;2023-04-03T13:01:58;2.40;;;1.13;;
5125;SDS011;63008;53.112;8.896;2023-04-03T13:04:03;2.50;;;1.03;;
5125;SDS011;63008;53.112;8.896;2023-04-03T13:06:05;2.43;;;1.33;;
5125;SDS011;63008;53.112;8.896;2023-04-03T13:08:07;1.20;;;0.90;;
5125;SDS011;63008;53.112;8.896;2023-04-03T13:10:16;0.97;;;0.80;;
5125;SDS011;63008;53.112;8.896;2023-04-03T13:12:18;1.20;;;1.10;;
5125;SDS011;63008;53.112;8.896;2023-04-03T13:14:23;3.27;;;1.40;;
5125;SDS011;63008;53.112;8.896;2023-04-03T13:16:26;1.63;;;1.23;;
5125;SDS011;63008;53.112;8.896;2023-04-03T13:18:32;4.27;;;1.20;;
5125;SDS011;63008;53.112;8.896;2023-04-03T13:20:35;4.73;;;1.27;;
5125;SDS011;63008;53.112;8.896;2023-04-03T13:22:45;1.20;;;1.00;;
5125;SDS011;63008;53.112;8.896;2023-04-03T13:24:49;3.83;;;1.17;;
5125;SDS011;63008;53.112;8.896;2023-04-03T13:26:52;2.60;;;1.17;;
5125;SDS011;63008;53.112;8.896;2023-04-03T13:28:54;3.13;;;0.80;;